createdAt,value
2019-01-21T00:00:32.559Z,28.87
2019-01-21T00:02:59.399Z,27.90
2019-01-21T00:05:25.201Z,27.87
2019-01-21T00:07:51.039Z,27.10
2019-01-21T00:10:16.855Z,27.43
2019-01-21T00:12:43.817Z,27.87
2019-01-21T00:15:11.533Z,27.40
2019-01-21T00:17:38.418Z,27.70
2019-01-21T00:20:05.636Z,27.13
2019-01-21T00:22:31.575Z,26.43
2019-01-21T00:24:57.387Z,27.73
2019-01-21T00:27:23.216Z,27.53
2019-01-21T00:29:49.033Z,27.27
2019-01-21T00:32:14.894Z,27.53
2019-01-21T00:34:40.706Z,28.50
2019-01-21T00:37:08.481Z,27.10
2019-01-21T00:39:34.308Z,27.83
2019-01-21T00:42:00.138Z,25.23
2019-01-21T00:44:26.066Z,25.83
2019-01-21T00:46:57.237Z,29.10
2019-01-21T00:49:23.080Z,25.83
2019-01-21T00:51:49.005Z,26.73
2019-01-21T00:54:14.823Z,26.57
2019-01-21T00:56:40.679Z,27.23
2019-01-21T00:59:08.175Z,26.13
2019-01-21T01:01:34.227Z,26.67
2019-01-21T01:04:00.096Z,26.27
2019-01-21T01:06:25.900Z,27.57
2019-01-21T01:08:53.033Z,27.20
2019-01-21T01:11:18.921Z,27.50
2019-01-21T01:13:47.227Z,27.47
2019-01-21T01:16:13.034Z,28.03
2019-01-21T01:18:38.855Z,28.83
2019-01-21T01:21:05.899Z,28.33
2019-01-21T01:23:31.734Z,28.90
2019-01-21T01:25:57.575Z,27.73
2019-01-21T01:28:26.010Z,29.73
2019-01-21T01:30:51.814Z,28.40
2019-01-21T01:33:17.654Z,29.03
2019-01-21T01:35:43.469Z,28.37
2019-01-21T01:38:12.073Z,29.37
2019-01-21T01:40:39.279Z,30.67
2019-01-21T01:43:05.035Z,28.53
2019-01-21T01:45:31.392Z,29.27
2019-01-21T01:47:58.825Z,29.43
2019-01-21T01:50:24.725Z,26.73
2019-01-21T01:52:50.555Z,27.67
2019-01-21T01:55:16.389Z,28.30
2019-01-21T01:57:42.205Z,26.97
2019-01-21T02:00:13.351Z,29.07
2019-01-21T02:02:39.491Z,27.93
2019-01-21T02:05:05.423Z,27.13
2019-01-21T02:07:31.231Z,28.63
2019-01-21T02:09:57.053Z,28.77
2019-01-21T02:12:22.895Z,27.80
2019-01-21T02:14:50.711Z,28.73
2019-01-21T02:17:16.982Z,28.17
2019-01-21T02:19:42.986Z,29.13
2019-01-21T02:22:12.427Z,28.33
2019-01-21T02:24:38.327Z,28.67
2019-01-21T02:27:04.154Z,27.80
2019-01-21T02:29:46.141Z,26.77
2019-01-21T02:32:15.805Z,27.87
2019-01-21T02:34:54.583Z,27.67
2019-01-21T02:37:30.003Z,28.30
2019-01-21T02:40:05.927Z,27.67
2019-01-21T02:42:40.161Z,26.63
2019-01-21T02:45:24.314Z,26.00
2019-01-21T02:48:03.279Z,27.27
2019-01-21T02:50:44.406Z,26.13
2019-01-21T02:53:20.123Z,26.40
2019-01-21T02:56:04.849Z,24.47
2019-01-21T02:58:37.250Z,25.40
2019-01-21T03:01:05.751Z,26.93
2019-01-21T03:03:35.412Z,25.47
2019-01-21T03:06:05.117Z,26.83
2019-01-21T03:08:40.789Z,25.80
2019-01-21T03:11:45.593Z,26.73
2019-01-21T03:14:24.416Z,26.90
2019-01-21T03:17:02.838Z,24.93
2019-01-21T03:19:41.520Z,25.57
2019-01-21T03:22:14.173Z,25.83
2019-01-21T03:24:58.593Z,27.13
2019-01-21T03:27:51.227Z,26.17
2019-01-21T03:30:57.277Z,24.83
2019-01-21T03:33:39.208Z,25.37
2019-01-21T03:36:23.930Z,25.77
2019-01-21T03:39:11.929Z,26.17
2019-01-21T03:41:47.458Z,25.17
2019-01-21T03:44:19.581Z,25.97
2019-01-21T03:46:52.643Z,26.03
2019-01-21T03:49:28.056Z,26.40
2019-01-21T03:52:20.529Z,26.93
2019-01-21T03:54:47.848Z,26.47
2019-01-21T03:57:17.075Z,24.97
2019-01-21T04:00:01.512Z,27.17
2019-01-21T04:02:56.714Z,25.67
2019-01-21T04:05:35.620Z,25.47
2019-01-21T04:08:17.393Z,25.77
2019-01-21T04:10:57.303Z,25.67
2019-01-21T04:13:27.027Z,25.50
2019-01-21T04:16:16.863Z,26.33
2019-01-21T04:18:58.290Z,25.23
2019-01-21T04:21:33.696Z,25.73
2019-01-21T04:24:12.212Z,25.30
2019-01-21T04:27:03.046Z,25.63
2019-01-21T04:29:52.578Z,26.60
2019-01-21T04:32:34.374Z,24.93
2019-01-21T04:35:20.563Z,26.53
2019-01-21T04:37:56.818Z,24.80
2019-01-21T04:40:29.246Z,26.13
2019-01-21T04:43:08.171Z,25.20
2019-01-21T04:45:47.002Z,25.97
2019-01-21T04:48:23.661Z,24.67
2019-01-21T04:50:59.410Z,24.37
2019-01-21T04:53:57.818Z,26.47
2019-01-21T04:56:42.307Z,25.00
2019-01-21T04:59:28.176Z,25.60
2019-01-21T05:02:00.736Z,25.50
2019-01-21T05:04:36.210Z,25.00
2019-01-21T05:07:11.881Z,25.17
2019-01-21T05:09:53.329Z,26.10
2019-01-21T05:12:40.609Z,27.67
2019-01-21T05:15:28.322Z,27.73
2019-01-21T05:18:21.852Z,27.33
2019-01-21T05:21:06.856Z,26.40
2019-01-21T05:23:39.259Z,26.53
2019-01-21T05:26:19.511Z,27.27
2019-01-21T05:28:54.900Z,25.53
2019-01-21T05:31:36.077Z,26.03
2019-01-21T05:34:08.878Z,25.87
2019-01-21T05:36:40.085Z,25.30
2019-01-21T05:39:31.199Z,26.23
2019-01-21T05:42:16.154Z,26.47
2019-01-21T05:45:16.182Z,24.53
2019-01-21T05:47:54.855Z,25.70
2019-01-21T05:50:39.621Z,24.57
2019-01-21T05:53:31.863Z,24.70
2019-01-21T05:56:01.469Z,26.10
2019-01-21T05:58:36.484Z,27.40
2019-01-21T06:01:15.719Z,26.53
2019-01-21T06:03:45.381Z,25.43
2019-01-21T06:06:24.181Z,26.60
2019-01-21T06:09:15.308Z,27.43
2019-01-21T06:11:54.226Z,26.20
2019-01-21T06:14:36.225Z,25.10
2019-01-21T06:17:11.582Z,25.93
2019-01-21T06:19:52.610Z,27.20
2019-01-21T06:22:31.189Z,26.67
2019-01-21T06:25:06.893Z,27.87
2019-01-21T06:28:00.413Z,26.97
2019-01-21T06:30:47.782Z,25.53
2019-01-21T06:33:35.577Z,25.17
2019-01-21T06:36:10.986Z,27.90
2019-01-21T06:39:18.747Z,27.23
2019-01-21T06:42:06.755Z,24.00
2019-01-21T06:44:45.432Z,25.97
2019-01-21T06:47:30.110Z,26.83
2019-01-21T06:50:08.660Z,26.70
2019-01-21T06:52:38.255Z,24.87
2019-01-21T06:55:20.153Z,26.77
2019-01-21T06:58:06.354Z,26.57
2019-01-21T07:00:55.825Z,27.80
2019-01-21T07:03:59.222Z,27.53
2019-01-21T07:06:41.169Z,28.43
2019-01-21T07:09:10.783Z,29.07
2019-01-21T07:11:57.117Z,26.13
2019-01-21T07:14:37.328Z,24.50
2019-01-21T07:17:13.090Z,25.43
2019-01-21T07:19:57.772Z,25.50
2019-01-21T07:22:31.218Z,25.23
2019-01-21T07:25:27.849Z,25.30
2019-01-21T07:28:18.360Z,27.27
2019-01-21T07:30:48.092Z,26.53
2019-01-21T07:33:29.812Z,27.20
2019-01-21T07:36:14.531Z,27.53
2019-01-21T07:38:58.713Z,27.40
2019-01-21T07:41:31.080Z,29.03
2019-01-21T07:44:09.949Z,28.13
2019-01-21T07:47:14.103Z,29.07
2019-01-21T07:49:44.309Z,29.80
2019-01-21T07:52:49.118Z,29.20
2019-01-21T07:55:42.161Z,27.23
2019-01-21T07:58:36.060Z,26.73
2019-01-21T08:01:22.320Z,28.83
2019-01-21T08:04:00.841Z,28.20
2019-01-21T08:06:45.791Z,28.17
2019-01-21T08:09:15.440Z,28.07
2019-01-21T08:11:47.898Z,29.47
2019-01-21T08:14:29.014Z,27.70
2019-01-21T08:17:07.342Z,28.47
2019-01-21T08:19:52.003Z,29.63
2019-01-21T08:22:39.699Z,29.63
2019-01-21T08:25:24.752Z,31.43
2019-01-21T08:28:14.020Z,30.60
2019-01-21T08:30:46.672Z,29.90
2019-01-21T08:33:50.011Z,30.10
2019-01-21T08:36:19.677Z,30.27
2019-01-21T08:38:52.328Z,31.17
2019-01-21T08:41:24.703Z,30.87
2019-01-21T08:44:14.154Z,30.13
2019-01-21T08:47:01.785Z,31.47
2019-01-21T08:49:37.530Z,33.07
2019-01-21T08:52:22.429Z,32.07
2019-01-21T08:54:52.061Z,30.47
2019-01-21T08:57:21.701Z,31.43
2019-01-21T08:59:54.367Z,32.30
2019-01-21T09:02:26.587Z,30.60
2019-01-21T09:04:56.207Z,31.33
2019-01-21T09:07:33.257Z,32.90
2019-01-21T09:10:19.433Z,33.17
2019-01-21T09:12:58.402Z,31.43
2019-01-21T09:15:30.777Z,33.03
2019-01-21T09:18:00.427Z,31.73
2019-01-21T09:20:52.559Z,32.37
2019-01-21T09:23:22.345Z,32.30
2019-01-21T09:26:00.809Z,31.23
2019-01-21T09:28:39.455Z,32.13
2019-01-21T09:31:24.183Z,30.03
2019-01-21T09:34:10.964Z,30.27
2019-01-21T09:37:10.485Z,31.17
2019-01-21T09:40:07.679Z,31.27
2019-01-21T09:42:40.333Z,31.00
2019-01-21T09:45:12.723Z,29.90
2019-01-21T09:47:38.330Z,30.13
2019-01-21T09:50:04.146Z,30.70
2019-01-21T09:52:30.250Z,31.07
2019-01-21T09:54:56.362Z,29.80
2019-01-21T09:57:22.449Z,30.33
2019-01-21T09:59:49.950Z,29.00
2019-01-21T10:02:19.905Z,29.23
2019-01-21T10:04:46.133Z,30.30
2019-01-21T10:07:21.601Z,30.13
2019-01-21T10:10:07.817Z,29.17
2019-01-21T10:12:46.432Z,29.50
2019-01-21T10:15:22.068Z,30.03
2019-01-21T10:17:51.734Z,29.03
2019-01-21T10:20:24.401Z,29.57
2019-01-21T10:23:00.035Z,30.27
2019-01-21T10:25:55.687Z,29.43
2019-01-21T10:28:45.167Z,30.07
2019-01-21T10:31:20.815Z,29.60
2019-01-21T10:34:05.772Z,31.20
2019-01-21T10:36:51.869Z,29.90
2019-01-21T10:39:49.974Z,29.03
2019-01-21T10:42:39.702Z,28.33
2019-01-21T10:45:27.547Z,29.83
2019-01-21T10:47:57.186Z,28.73
2019-01-21T10:50:39.101Z,29.50
2019-01-21T10:53:39.326Z,28.90
2019-01-21T10:56:17.913Z,29.27
2019-01-21T10:59:14.543Z,29.30
2019-01-21T11:01:47.144Z,30.10
2019-01-21T11:04:38.199Z,31.73
2019-01-21T11:07:16.744Z,29.07
2019-01-21T11:09:55.431Z,28.07
2019-01-21T11:12:34.161Z,28.77
2019-01-21T11:15:13.040Z,28.90
2019-01-21T11:17:45.680Z,28.00
2019-01-21T11:20:24.114Z,26.57
2019-01-21T11:23:08.775Z,27.67
2019-01-21T11:25:57.497Z,26.53
2019-01-21T11:28:27.107Z,26.73
2019-01-21T11:31:23.684Z,26.20
2019-01-21T11:34:20.065Z,25.37
2019-01-21T11:36:55.830Z,25.67
2019-01-21T11:39:46.112Z,23.77
2019-01-21T11:42:22.298Z,23.97
2019-01-21T11:45:08.638Z,23.57
2019-01-21T11:47:43.912Z,23.17
2019-01-21T11:50:40.898Z,22.33
2019-01-21T11:53:10.551Z,22.33
2019-01-21T11:55:46.191Z,22.83
2019-01-21T11:58:34.089Z,22.47
2019-01-21T12:01:12.788Z,23.30
2019-01-21T12:03:57.379Z,21.27
2019-01-21T12:06:27.023Z,21.60
2019-01-21T12:09:18.005Z,21.53
2019-01-21T12:11:50.455Z,19.80
2019-01-21T12:14:20.065Z,18.53
2019-01-21T12:16:49.692Z,18.33
2019-01-21T12:19:37.420Z,17.97
2019-01-21T12:22:24.106Z,19.13
2019-01-21T12:24:52.718Z,18.20
2019-01-21T12:27:43.614Z,19.40
2019-01-21T12:30:28.238Z,18.27
2019-01-21T12:33:22.295Z,19.27
2019-01-21T12:35:57.417Z,17.20
2019-01-21T12:38:30.059Z,18.57
2019-01-21T12:41:21.551Z,18.00
2019-01-21T12:43:59.829Z,18.87
2019-01-21T12:46:47.509Z,18.80
2019-01-21T12:49:26.185Z,18.17
2019-01-21T12:52:12.086Z,18.53
2019-01-21T12:54:44.249Z,18.50
2019-01-21T12:57:16.835Z,18.60
2019-01-21T12:59:46.536Z,18.00
2019-01-21T13:02:22.308Z,18.83
2019-01-21T13:04:58.033Z,18.87
2019-01-21T13:07:30.171Z,17.93
2019-01-21T13:10:14.475Z,19.37
2019-01-21T13:13:05.242Z,19.17
2019-01-21T13:15:43.689Z,19.00
2019-01-21T13:18:28.131Z,18.43
2019-01-21T13:21:34.658Z,19.00
2019-01-21T13:24:00.887Z,19.37
2019-01-21T13:26:36.511Z,19.30
2019-01-21T13:29:09.155Z,20.70
2019-01-21T13:31:51.224Z,22.83
2019-01-21T13:34:38.799Z,21.73
2019-01-21T13:37:24.746Z,22.73
2019-01-21T13:40:28.217Z,22.40
2019-01-21T13:43:18.272Z,21.70
2019-01-21T13:45:59.996Z,22.83
2019-01-21T13:48:32.693Z,22.87
2019-01-21T13:51:02.320Z,23.87
2019-01-21T13:53:51.865Z,24.40
2019-01-21T13:56:21.493Z,24.47
2019-01-21T13:59:12.008Z,25.77
2019-01-21T14:01:41.644Z,24.80
2019-01-21T14:04:35.544Z,26.13
2019-01-21T14:07:10.558Z,25.83
2019-01-21T14:09:48.854Z,27.57
2019-01-21T14:12:25.435Z,27.43
2019-01-21T14:15:21.184Z,27.53
2019-01-21T14:17:59.951Z,28.43
2019-01-21T14:20:29.579Z,28.20
2019-01-21T14:23:08.343Z,29.83
2019-01-21T14:25:37.959Z,29.70
2019-01-21T14:28:15.287Z,29.77
2019-01-21T14:30:50.926Z,29.47
2019-01-21T14:33:32.702Z,30.77
2019-01-21T14:36:08.063Z,30.47
2019-01-21T14:38:46.726Z,30.83
2019-01-21T14:41:35.662Z,31.03
2019-01-21T14:44:26.609Z,31.93
2019-01-21T14:46:58.714Z,31.60
2019-01-21T14:49:43.457Z,32.23
2019-01-21T14:52:22.290Z,33.57
2019-01-21T14:54:54.627Z,32.33
2019-01-21T14:57:48.149Z,31.43
2019-01-21T15:00:31.370Z,31.77
2019-01-21T15:03:03.986Z,32.67
2019-01-21T15:05:48.985Z,32.73
2019-01-21T15:08:18.661Z,33.93
2019-01-21T15:10:57.321Z,32.87
2019-01-21T15:13:45.334Z,33.37
2019-01-21T15:16:23.986Z,34.47
2019-01-21T15:18:53.602Z,33.77
2019-01-21T15:21:42.821Z,34.50
2019-01-21T15:24:33.617Z,34.23
2019-01-21T15:27:09.038Z,35.47
2019-01-21T15:29:50.675Z,33.73
2019-01-21T15:32:32.707Z,36.17
2019-01-21T15:35:21.695Z,35.60
2019-01-21T15:38:09.660Z,35.77
2019-01-21T15:40:59.172Z,34.60
2019-01-21T15:43:44.188Z,34.50
2019-01-21T15:46:16.618Z,34.80
2019-01-21T15:48:48.982Z,35.47
2019-01-21T15:51:41.259Z,34.87
2019-01-21T15:54:17.016Z,34.97
2019-01-21T15:56:55.431Z,35.87
2019-01-21T15:59:44.911Z,35.40
2019-01-21T16:02:17.759Z,34.50
2019-01-21T16:04:53.569Z,36.47
2019-01-21T16:07:28.805Z,37.60
2019-01-21T16:10:10.572Z,37.07
2019-01-21T16:12:49.367Z,37.73
2019-01-21T16:15:42.230Z,37.33
2019-01-21T16:18:20.957Z,38.30
2019-01-21T16:21:13.659Z,36.17
2019-01-21T16:24:00.973Z,39.00
2019-01-21T16:26:33.255Z,37.83
2019-01-21T16:29:07.928Z,38.67
2019-01-21T16:31:33.827Z,37.50
2019-01-21T16:34:15.276Z,37.43
2019-01-21T16:36:45.735Z,36.20
2019-01-21T16:39:15.368Z,37.17
2019-01-21T16:41:45.022Z,33.57
2019-01-21T16:44:13.692Z,35.93
2019-01-21T16:46:40.897Z,38.47
2019-01-21T16:49:07.968Z,37.53
2019-01-21T16:51:33.954Z,37.77
2019-01-21T16:53:59.859Z,38.27
2019-01-21T16:56:25.713Z,38.13
2019-01-21T16:58:51.515Z,37.13
2019-01-21T17:01:17.347Z,33.33
2019-01-21T17:03:43.478Z,36.60
2019-01-21T17:06:10.050Z,37.07
2019-01-21T17:08:35.875Z,35.97
2019-01-21T17:11:01.700Z,36.30
2019-01-21T17:13:27.571Z,36.13
2019-01-21T17:15:56.056Z,36.63
2019-01-21T17:18:21.849Z,35.87
2019-01-21T17:20:47.664Z,35.20
2019-01-21T17:23:13.485Z,35.07
2019-01-21T17:25:39.307Z,34.77
2019-01-21T17:28:08.793Z,35.40
2019-01-21T17:30:36.134Z,36.03
2019-01-21T17:33:01.983Z,33.20
2019-01-21T17:35:27.802Z,33.50
2019-01-21T17:37:53.611Z,31.60
2019-01-21T17:40:19.454Z,33.07
2019-01-21T17:42:45.296Z,31.77
2019-01-21T17:45:13.714Z,32.53
2019-01-21T17:47:39.643Z,34.07
2019-01-21T17:50:08.967Z,35.33
2019-01-21T17:52:34.788Z,32.13
2019-01-21T17:55:00.620Z,34.67
2019-01-21T17:57:26.462Z,33.63
2019-01-21T17:59:53.727Z,35.03
2019-01-21T18:02:19.730Z,36.07
2019-01-21T18:04:45.580Z,35.73
2019-01-21T18:07:11.443Z,36.80
2019-01-21T18:09:37.251Z,35.63
2019-01-21T18:12:03.091Z,36.83
2019-01-21T18:14:31.789Z,37.17
2019-01-21T18:16:57.601Z,36.47
2019-01-21T18:19:23.460Z,36.57
2019-01-21T18:21:52.174Z,35.97
2019-01-21T18:24:17.978Z,35.13
2019-01-21T18:26:46.208Z,34.87
2019-01-21T18:29:12.019Z,35.97
2019-01-21T18:31:37.921Z,36.63
2019-01-21T18:34:03.759Z,35.57
2019-01-21T18:36:29.565Z,36.03
2019-01-21T18:39:03.083Z,37.63
2019-01-21T18:41:28.930Z,37.90
2019-01-21T18:43:54.814Z,36.20
2019-01-21T18:46:20.669Z,37.97
2019-01-21T18:48:49.245Z,37.80
2019-01-21T18:51:15.051Z,36.90
2019-01-21T18:53:40.872Z,35.47
2019-01-21T18:56:06.702Z,34.00
2019-01-21T18:58:32.495Z,32.40
2019-01-21T19:00:58.341Z,33.10
2019-01-21T19:03:26.252Z,33.20
2019-01-21T19:05:52.067Z,32.67
2019-01-21T19:08:17.919Z,32.83
2019-01-21T19:10:43.737Z,32.23
2019-01-21T19:13:11.955Z,31.87
2019-01-21T19:15:37.776Z,32.67
2019-01-21T19:18:03.580Z,32.97
2019-01-21T19:20:29.410Z,32.83
2019-01-21T19:22:55.255Z,36.33
2019-01-21T19:25:22.114Z,35.63
2019-01-21T19:27:47.936Z,36.20
2019-01-21T19:30:16.680Z,37.60
2019-01-21T19:32:45.877Z,37.33
2019-01-21T19:35:15.899Z,36.60
2019-01-21T19:37:43.609Z,36.37
2019-01-21T19:40:14.826Z,36.70
2019-01-21T19:42:41.115Z,35.90
2019-01-21T19:45:10.410Z,34.90
2019-01-21T19:47:36.218Z,36.93
2019-01-21T19:50:07.240Z,33.80
2019-01-21T19:52:33.181Z,35.73
2019-01-21T19:55:04.696Z,33.60
2019-01-21T19:57:30.764Z,33.63
2019-01-21T19:59:56.594Z,34.73
2019-01-21T20:02:22.617Z,34.10
2019-01-21T20:04:48.430Z,34.67
2019-01-21T20:07:14.235Z,35.73
2019-01-21T20:09:40.622Z,33.33
2019-01-21T20:12:06.386Z,34.17
2019-01-21T20:14:40.924Z,33.77
2019-01-21T20:17:08.627Z,32.47
2019-01-21T20:19:34.430Z,34.20
2019-01-21T20:22:07.147Z,33.23
2019-01-21T20:24:30.666Z,33.70
2019-01-21T20:26:56.661Z,34.33
2019-01-21T20:29:22.484Z,35.13
2019-01-21T20:31:48.350Z,36.17
2019-01-21T20:34:16.583Z,35.87
2019-01-21T20:36:44.415Z,34.57
2019-01-21T20:39:12.181Z,34.27
2019-01-21T20:41:38.228Z,33.23
2019-01-21T20:44:04.248Z,34.13
2019-01-21T20:46:30.099Z,35.53
2019-01-21T20:48:55.909Z,34.43
2019-01-21T20:51:21.729Z,34.77
2019-01-21T20:53:47.661Z,34.17
2019-01-21T20:56:13.476Z,36.30
2019-01-21T20:58:39.300Z,37.40
2019-01-21T21:01:05.155Z,37.93
2019-01-21T21:03:33.571Z,38.57
2019-01-21T21:06:02.352Z,35.53
2019-01-21T21:08:28.183Z,36.47
2019-01-21T21:10:54.021Z,36.43
2019-01-21T21:13:19.919Z,37.47
2019-01-21T21:15:45.843Z,35.93
2019-01-21T21:18:12.703Z,36.97
2019-01-21T21:20:38.628Z,38.33
2019-01-21T21:23:06.414Z,37.73
2019-01-21T21:25:32.225Z,36.40
2019-01-21T21:27:58.034Z,36.93
2019-01-21T21:30:26.455Z,37.90
2019-01-21T21:32:52.279Z,36.67
2019-01-21T21:35:18.614Z,40.97
2019-01-21T21:37:44.470Z,39.37
2019-01-21T21:40:18.507Z,38.47
2019-01-21T21:42:44.504Z,37.77
2019-01-21T21:45:12.115Z,38.13
2019-01-21T21:47:37.974Z,36.27
2019-01-21T21:50:08.028Z,44.17
2019-01-21T21:52:34.039Z,39.07
2019-01-21T21:54:59.847Z,38.13
2019-01-21T21:57:25.667Z,38.27
2019-01-21T21:59:51.509Z,37.23
2019-01-21T22:02:17.398Z,38.53
2019-01-21T22:04:43.220Z,36.67
2019-01-21T22:07:09.365Z,36.23
2019-01-21T22:09:35.190Z,35.83
2019-01-21T22:12:04.835Z,36.53
2019-01-21T22:14:30.649Z,35.47
2019-01-21T22:16:56.528Z,34.67
2019-01-21T22:19:22.326Z,35.20
2019-01-21T22:21:48.535Z,34.50
2019-01-21T22:24:14.391Z,34.70
2019-01-21T22:26:40.274Z,35.67
2019-01-21T22:29:06.102Z,35.70
2019-01-21T22:31:34.918Z,34.47
2019-01-21T22:34:00.823Z,34.17
2019-01-21T22:36:29.124Z,34.27
2019-01-21T22:38:54.967Z,34.60
2019-01-21T22:41:22.310Z,35.13
2019-01-21T22:43:49.063Z,34.83
2019-01-21T22:46:17.879Z,35.87
2019-01-21T22:48:43.708Z,35.47
2019-01-21T22:51:09.514Z,36.57
2019-01-21T22:53:35.915Z,34.10
2019-01-21T22:56:03.882Z,34.33
2019-01-21T22:58:29.675Z,33.70
2019-01-21T23:01:00.529Z,35.63
2019-01-21T23:03:26.401Z,34.37
2019-01-21T23:05:52.199Z,33.67
2019-01-21T23:08:18.303Z,34.43
2019-01-21T23:10:44.119Z,39.23
2019-01-21T23:13:09.954Z,35.30
2019-01-21T23:15:37.655Z,34.80
2019-01-21T23:18:04.449Z,34.33
2019-01-21T23:20:30.787Z,33.37
2019-01-21T23:22:56.627Z,34.33
2019-01-21T23:25:22.825Z,35.63
2019-01-21T23:27:48.634Z,34.93
2019-01-21T23:30:19.372Z,34.67
2019-01-21T23:32:45.178Z,35.20
2019-01-21T23:35:14.197Z,37.23
2019-01-21T23:37:41.262Z,34.83
2019-01-21T23:40:09.165Z,35.53
2019-01-21T23:42:37.105Z,36.90
2019-01-21T23:45:06.142Z,37.27
2019-01-21T23:47:31.956Z,38.30
2019-01-21T23:49:57.761Z,39.33
2019-01-21T23:52:23.824Z,39.57
2019-01-21T23:54:49.658Z,41.50
2019-01-21T23:57:15.474Z,39.23
2019-01-21T23:59:41.309Z,39.80
